Latest Coastal Weather Observations for Devonport Airport

IDT60701

Issued at 5:03 am EST Sunday 25 June 2017 (issued every 10 minutes, with the page automatically refreshed every 10 minutes)

About coastal observations | Map of coastal stations | Coastal observations for TAS | Marine services | Other Formats
Station Details ID: 091126 Name: DEVONPORT AIRPORT Lat: -41.17 Lon: 146.43 Height: 8.0 m
Data from the previous 72 hours. | See also: Recent months at Devonport Airport
Date/Time
EST
Temp
°C
Wind Pressure Rain since
9am
mm
Weather Cloud Vis
km
Sea
Height
m
Swell
Dir  Spd
kts
Gust
kts
hPa Trend Height
m
Period
s
Dir
25/05:00am 9.1 WNW 16 19 1009.3 - 0.0 - Cloudy 10 - - - -
25/04:30am 9.0 W 15 20 1009.6 - 0.0 - Cloudy 10 - - - -
25/04:00am 9.0 WNW 16 20 1009.9 - 0.0 - Cloudy 10 - - - -
25/03:30am 8.7 W 13 17 1010.4 - 0.0 - Cloudy 10 - - - -
25/03:00am 7.9 WSW 7 13 1010.8 - 0.0 - Cloudy 10 - - - -
25/02:30am 7.6 WSW 7 9 1011.1 - 0.0 - - 10 - - - -
25/02:00am 7.6 W 7 11 1011.3 - 0.0 - Partly cloudy 10 - - - -
25/01:30am 5.7 WSW 4 7 1011.5 - 0.0 - Partly cloudy 10 - - - -
25/01:00am 4.7 SSW 5 6 1011.7 - 0.0 - - 10 - - - -
25/12:30am 4.7 SSW 3 4 1011.9 - 0.0 - - 10 - - - -
25/12:00am 5.4 SW 5 7 1012.2 - 0.0 - Cloudy 10 - - - -
 
Date/Time
EST
Temp
°C
Wind Pressure Rain since
9am
mm
Weather Cloud Vis
km
Sea
Height
m
Swell
Dir  Spd
kts
Gust
kts
hPa Trend Height
m
Period
s
Dir
24/11:30pm 6.2 SW 5 8 1012.4 - 0.0 - Partly cloudy 10 - - - -
24/11:00pm 5.8 WSW 7 8 1012.7 - 0.0 - - 10 - - - -
24/10:30pm 6.8 W 8 11 1012.9 - 0.0 - - 10 - - - -
24/10:00pm 7.2 W 10 14 1013.1 - 0.0 - Partly cloudy 10 - - - -
24/09:30pm 6.0 WSW 8 9 1013.1 - 0.0 - - 10 - - - -
24/09:00pm 5.7 WSW 7 9 1013.4 - 0.0 - Cloudy 10 - - - -
24/08:30pm 5.9 W 8 9 1013.4 - 0.0 - - 10 - - - -
24/08:00pm 6.2 W 9 10 1013.4 - 0.0 - - 10 - - - -
24/07:30pm 6.0 WSW 8 10 1013.5 - 0.0 - - 10 - - - -
24/07:00pm 7.0 W 11 15 1013.4 - 0.0 - - 10 - - - -
24/06:30pm 6.3 WSW 7 9 1013.2 - 0.0 - - 10 - - - -
24/06:00pm 6.2 WSW 7 9 1013.1 - 0.0 - Cloudy 10 - - - -
24/05:30pm 7.6 W 12 13 1013.0 - 0.0 - - 10 - - - -
24/05:00pm 8.1 W 11 13 1013.0 - 0.0 - - 10 - - - -
24/04:30pm 9.1 W 14 17 1012.9 - 0.0 - - 10 - - - -
24/04:00pm 10.1 W 13 17 1012.7 - 0.0 - - 10 - - - -
24/03:30pm 9.6 W 11 16 1012.6 - 0.0 - - 10 - - - -
24/03:00pm 10.2 WSW 13 15 1012.5 - 0.0 - Mostly cloudy 10 - - - -
24/02:30pm 10.5 WSW 11 14 1012.5 - 0.0 - - 10 - - - -
24/02:00pm 9.6 W 13 19 1012.7 - 0.0 - - 10 - - - -
24/01:30pm 10.6 W 10 14 1012.9 - 0.0 - - 10 - - - -
24/01:00pm 9.8 W 15 21 1013.1 - 0.0 - Partly cloudy 10 - - - -
24/12:30pm 10.2 W 14 18 1013.4 - 0.0 - - 10 - - - -
24/12:00pm 9.4 W 13 17 1013.6 - 0.0 - - 10 - - - -
24/11:30am 9.2 WNW 13 16 1013.9 - 0.0 - - 10 - - - -
24/11:00am 8.7 WNW 13 18 1014.3 - 0.0 - - 10 - - - -
24/10:30am 8.2 W 11 14 1014.4 - 0.0 - - 10 - - - -
24/10:00am 7.8 W 13 17 1014.4 - 0.0 - - 10 - - - -
24/09:30am 7.0 WSW 10 13 1014.3 - 0.0 - - 10 - - - -
24/09:00am 6.2 W 10 13 1014.1 - 2.0 - - 10 - - - -
24/08:30am 4.7 WSW 7 11 1013.7 - 2.0 - - 10 - - - -
24/08:00am 4.5 WSW 11 13 1013.6 - 2.0 - - 10 - - - -
24/07:30am 4.8 W 13 16 1013.3 - 2.0 - - 10 - - - -
24/07:00am 3.1 WSW 10 13 1013.1 - 2.0 - - 10 - - - -
24/06:30am 3.7 WSW 8 9 1012.8 - 2.0 - - 10 - - - -
24/06:00am 2.5 WSW 7 9 1012.3 - 2.0 - - 10 - - - -
24/05:30am 3.0 WSW 9 10 1012.1 - 2.0 - Partly cloudy 10 - - - -
24/05:00am 2.7 WSW 8 11 1012.0 - 2.0 - Partly cloudy 10 - - - -
24/04:30am 3.9 WSW 4 6 1012.0 - 2.0 - - 10 - - - -
24/04:00am 2.6 W 7 8 1012.0 - 2.0 - - 10 - - - -
24/03:30am 2.6 W 8 10 1011.8 - 2.0 - - 10 - - - -
24/03:00am 2.7 WSW 9 11 1011.7 - 2.0 - - 10 - - - -
24/02:30am 2.7 WSW 8 10 1011.6 - 2.0 - - 10 - - - -
24/02:00am 4.5 WSW 7 7 1011.3 - 2.0 - - 10 - - - -
24/01:30am 4.7 WSW 10 12 1010.9 - 2.0 - Partly cloudy 10 - - - -
24/01:00am 4.4 WSW 7 9 1010.7 - 2.0 - Partly cloudy 10 - - - -
24/12:30am 4.6 WSW 9 11 1010.3 - 2.0 - - 10 - - - -
24/12:00am 4.7 W 10 13 1010.2 - 2.0 - - 10 - - - -
 
Date/Time
EST
Temp
°C
Wind Pressure Rain since
9am
mm
Weather Cloud Vis
km
Sea
Height
m
Swell
Dir  Spd
kts
Gust
kts
hPa Trend Height
m
Period
s
Dir
23/11:30pm 4.7 W 7 11 1009.5 - 2.0 - - 10 - - - -
23/11:00pm 5.6 WSW 7 10 1009.3 - 2.0 - - 10 - - - -
23/10:30pm 5.9 WSW 10 16 1009.4 - 2.0 - - 10 - - - -
23/10:00pm 6.4 WSW 12 21 1008.7 - 2.0 - - 10 - - - -
23/09:30pm 7.3 WSW 15 19 1008.2 - 2.0 - - 10 - - - -
23/09:00pm 7.8 WSW 11 23 1007.8 - 2.0 - - 10 - - - -
23/08:30pm 7.0 WSW 9 13 1007.4 - 2.0 - Partly cloudy 10 - - - -
23/08:00pm 8.3 WSW 15 20 1007.0 - 2.0 - Partly cloudy 10 - - - -
23/07:30pm 8.5 WSW 17 22 1006.5 - 2.0 - Partly cloudy 10 - - - -
23/07:11pm 9.0 WSW 19 29 1006.3 - 2.0 - Partly cloudy 10 - - - -
23/07:00pm 9.2 WSW 20 28 1005.8 - 2.0 - Partly cloudy 10 - - - -
23/06:30pm 10.1 W 16 23 1004.6 - 2.0 - - 10 - - - -
23/06:00pm 10.8 W 17 23 1004.0 - 2.0 - - 10 - - - -
23/05:30pm 11.2 W 16 21 1003.8 - 2.0 - Partly cloudy 10 - - - -
23/05:00pm 11.4 W 16 21 1003.8 - 2.0 - Partly cloudy 10 - - - -
23/04:30pm 11.1 W 15 19 1004.4 - 2.0 - Partly cloudy 10 - - - -
23/04:12pm 11.3 WSW 17 27 1004.3 - 2.0 - Partly cloudy 10 - - - -
23/04:10pm 11.4 WSW 18 28 1004.3 - 2.0 - Partly cloudy 10 - - - -
23/04:00pm 11.9 W 25 32 1004.2 - 1.8 - Partly cloudy 6 - - - -
23/03:56pm 13.0 WNW 26 33 1004.1 - 1.8 - Partly cloudy 6 - - - -
23/03:30pm 13.5 WNW 27 35 1004.0 - 1.6 - Partly cloudy 10 - - - -
23/03:13pm 13.3 WNW 27 37 1004.0 - 1.6 - Partly cloudy 10 - - - -
23/03:00pm 13.1 WNW 28 37 1004.1 - 1.6 - Partly cloudy 10 - - - -
23/02:58pm 13.1 NW 27 37 1004.0 - 1.6 - Partly cloudy 10 - - - -
23/02:30pm 13.0 NW 25 33 1004.8 - 1.6 - Partly cloudy 10 - - - -
23/02:00pm 13.6 NW 24 31 1005.5 - 1.6 - Partly cloudy 10 - - - -
23/01:38pm 13.5 WNW 24 34 1005.8 - 1.6 - Partly cloudy 10 - - - -
23/01:30pm 13.6 WNW 22 28 1006.4 - 1.6 - Partly cloudy 10 - - - -
23/01:00pm 13.6 NW 25 33 1007.2 - 1.6 - Partly cloudy 10 - - - -
23/12:43pm 13.7 WNW 27 37 1007.4 - 1.6 - Partly cloudy 10 - - - -
23/12:30pm 13.3 NW 28 34 1007.5 - 1.6 - Partly cloudy 10 - - - -
23/12:13pm 13.2 NW 25 35 1008.0 - 1.6 - Partly cloudy 10 - - - -
23/12:00pm 13.6 NW 27 33 1008.5 - 1.6 Showers Cloudy 10 - - - -
23/11:30am 13.3 NW 27 33 1009.3 - 1.6 - Partly cloudy 10 - - - -
23/11:09am 13.5 NW 27 37 1009.7 - 1.6 - Partly cloudy 10 - - - -
23/11:00am 13.3 NW 28 36 1009.8 - 1.6 - Partly cloudy 10 - - - -
23/10:32am 13.4 NW 27 37 1010.3 - 1.6 - Partly cloudy 10 - - - -
23/10:30am 13.4 NW 28 37 1010.3 - 1.6 - Partly cloudy 10 - - - -
23/10:15am 13.2 WNW 25 33 1010.6 - 1.6 - Partly cloudy 9 - - - -
23/10:00am 13.0 WNW 27 36 1010.8 - 1.6 - Partly cloudy 6 - - - -
23/09:40am 12.7 WNW 26 37 1011.1 - 0.6 - Partly cloudy 6 - - - -
23/09:37am 13.2 WNW 25 37 1011.0 - 0.4 - Partly cloudy 8 - - - -
23/09:30am 12.9 WNW 24 29 1011.4 - 0.4 - Partly cloudy 7 - - - -
23/09:06am 13.6 WNW 26 36 1011.6 - 0.0 - Partly cloudy 10 - - - -
23/09:00am 13.6 WNW 26 34 1011.5 - 8.6 Rain Mostly cloudy 10 - - - -
23/08:58am 13.5 WNW 24 34 1011.6 - 8.6 - Cloudy 10 - - - -
23/08:42am 12.9 WNW 17 29 1011.9 - 8.6 - Cloudy 10 - - - -
23/08:30am 12.8 W 15 23 1012.0 - 8.6 - Partly cloudy 10 - - - -
23/08:28am 12.7 W 15 23 1011.9 - 8.6 - Partly cloudy 10 - - - -
23/08:06am 12.3 WNW 21 27 1012.2 - 8.6 - Partly cloudy 10 - - - -
23/08:00am 12.3 WNW 22 30 1012.3 - 8.6 - Partly cloudy 9 - - - -
23/07:37am 11.6 WNW 15 28 1012.7 - 8.0 - Partly cloudy 5 - - - -
23/07:36am 11.8 WNW 14 19 1012.9 - 7.8 - Partly cloudy 6 - - - -
23/07:30am 11.6 W 14 17 1012.7 - 6.8 - Partly cloudy 10 - - - -
23/07:20am 11.5 W 16 22 1012.8 - 6.8 - Partly cloudy 10 - - - -
23/07:00am 11.8 WNW 16 21 1012.9 - 6.0 - Partly cloudy 7 - - - -
23/06:36am 11.9 WNW 22 27 1012.8 - 4.6 - Partly cloudy 6 - - - -
23/06:30am 12.1 WNW 21 27 1012.9 - 4.2 - Partly cloudy 9 - - - -
23/06:00am 12.1 WNW 18 23 1013.0 - 4.0 Rain Cloudy 10 - - - -
23/05:55am 12.0 WNW 17 21 1013.0 - 3.8 - Partly cloudy 10 - - - -
23/05:35am 12.3 WNW 23 29 1013.1 - 3.6 - Partly cloudy 6 - - - -
23/05:30am 12.4 WNW 24 29 1013.0 - 3.4 - Partly cloudy 8 - - - -
23/05:01am 12.8 WNW 23 30 1013.1 - 3.2 - Partly cloudy 10 - - - -
23/05:00am 12.8 WNW 23 30 1013.0 - 3.2 - Partly cloudy 10 - - - -
23/04:46am 12.6 W 16 29 1013.2 - 3.2 - Partly cloudy 10 - - - -
23/04:44am 12.2 W 14 23 1013.2 - 3.2 - Partly cloudy 10 - - - -
23/04:30am 10.4 WSW 9 13 1013.7 - 3.2 - Partly cloudy 10 - - - -
23/04:00am 9.3 S 5 9 1014.1 - 3.0 - Partly cloudy 10 - - - -
23/03:30am 8.5 SSE 4 5 1014.6 - 3.0 - Partly cloudy 10 - - - -
23/03:23am 8.4 SE 3 5 1014.9 - 3.0 - Partly cloudy 10 - - - -
23/03:13am 8.3 ESE 2 3 1015.0 - 2.8 - Partly cloudy 6 - - - -
23/03:05am 8.2 ESE 3 4 1015.3 - 2.4 - Partly cloudy 9 - - - -
23/03:00am 8.2 ESE 4 5 1015.3 - 2.2 Showers Cloudy 10 - - - -
23/02:37am 7.9 S 5 8 1015.8 - 1.8 - Partly cloudy 8 - - - -
23/02:30am 8.0 S 7 11 1015.9 - 1.6 - Partly cloudy 7 - - - -
23/02:25am 8.1 S 6 11 1016.0 - 1.4 - Partly cloudy 6 - - - -
23/02:16am 8.1 SSE 5 6 1016.0 - 0.4 - Partly cloudy 10 - - - -
23/02:00am 8.0 S 5 6 1016.1 - 0.4 - Partly cloudy 10 - - - -
23/01:59am 8.0 S 5 6 1016.1 - 0.4 - Partly cloudy 10 - - - -
23/01:30am 7.7 ESE 3 5 1016.7 - 0.4 - Cloudy 10 - - - -
23/01:00am 7.6 S 5 6 1017.3 - 0.4 - Partly cloudy 7 - - - -
23/12:54am 7.5 S 5 6 1017.5 - 0.2 - Partly cloudy 10 - - - -
23/12:30am 7.4 SSE 5 6 1017.9 - 0.2 - Partly cloudy 10 - - - -
23/12:00am 7.5 S 3 5 1018.3 - 0.2 Drizzle Cloudy 10 - - - -
 
Date/Time
EST
Temp
°C
Wind Pressure Rain since
9am
mm
Weather Cloud Vis
km
Sea
Height
m
Swell
Dir  Spd
kts
Gust
kts
hPa Trend Height
m
Period
s
Dir
22/11:30pm 7.5 SSE 3 5 1018.7 - 0.2 - Partly cloudy 10 - - - -
22/11:00pm 7.3 SE 3 5 1019.1 - 0.2 - Partly cloudy 10 - - - -
22/10:30pm 7.1 SE 4 5 1019.6 - 0.2 - Partly cloudy 10 - - - -
22/10:00pm 7.5 SSE 3 4 1020.2 - 0.2 - Partly cloudy 10 - - - -
22/09:55pm 7.5 S 3 4 1020.3 - 0.2 - Partly cloudy 10 - - - -
22/09:30pm 7.5 S 4 5 1020.6 - 0.2 - Cloudy 10 - - - -
22/09:15pm 7.0 SSE 4 5 1020.7 - 0.2 - Partly cloudy 10 - - - -
22/09:00pm 7.1 SSE 6 6 1020.5 - 0.2 Drizzle Cloudy 10 - - - -
22/08:30pm 8.0 SSE 3 4 1020.9 - 0.2 - Cloudy 10 - - - -
22/08:29pm 8.0 SSE 3 4 1020.9 - 0.2 - Partly cloudy 10 - - - -
22/08:00pm 8.0 S 4 4 1021.1 - 0.2 - Partly cloudy 5 - - - -
22/07:45pm 8.1 SSE 3 3 1021.2 - 0.0 - Partly cloudy 6 - - - -
22/07:30pm 8.2 SSE 3 4 1021.3 - 0.0 - Partly cloudy 10 - - - -
22/07:00pm 7.9 SSE 5 5 1021.4 - 0.0 - Partly cloudy 10 - - - -
22/06:30pm 8.0 S 4 5 1021.7 - 0.0 - Partly cloudy 10 - - - -
22/06:00pm 8.9 SW 3 4 1022.0 - 0.0 - Cloudy 10 - - - -
22/05:30pm 8.8 SW 4 5 1022.1 - 0.0 - Partly cloudy 10 - - - -
22/05:00pm 8.8 WSW 4 7 1022.6 - 0.0 - Partly cloudy 10 - - - -
22/04:30pm 9.9 WNW 4 6 1022.8 - 0.0 - Partly cloudy 10 - - - -
22/04:00pm 9.9 WNW 4 5 1022.9 - 0.0 - Partly cloudy 10 - - - -
22/03:30pm 10.3 NW 4 6 1023.1 - 0.0 - Partly cloudy 10 - - - -
22/03:00pm 10.2 NNW 3 4 1023.3 - 0.0 - Cloudy 10 - - - -
22/02:30pm 10.2 N 5 7 1023.6 - 0.0 - Cloudy 10 - - - -
22/02:00pm 10.2 NNW 4 5 1024.0 - 0.0 - Cloudy 10 - - - -
22/01:30pm 10.5 NNW 5 6 1024.4 - 0.0 - Partly cloudy 10 - - - -
22/01:00pm 10.0 NW 5 7 1025.0 - 0.0 - Partly cloudy 10 - - - -
22/12:30pm 10.2 WNW 5 7 1025.8 - 0.0 - Partly cloudy 10 - - - -
22/12:00pm 9.9 WSW 4 6 1026.2 - 0.0 - Mostly clear 10 - - - -
22/11:30am 9.1 SSW 3 6 1026.7 - 0.0 - Partly cloudy 10 - - - -
22/11:00am 7.8 S 5 6 1027.3 - 0.0 - Cloudy 10 - - - -
22/10:30am 6.6 S 7 9 1027.5 - 0.0 - Cloudy 10 - - - -
22/10:00am 6.2 S 5 6 1027.7 - 0.0 - Partly cloudy 10 - - - -
22/09:30am 5.7 SSW 6 7 1027.7 - 0.0 - Partly cloudy 10 - - - -
22/09:00am 5.5 S 7 9 1027.6 - 0.0 - Cloudy 10 - - - -
22/08:30am 5.2 SSE 7 8 1027.6 - 0.0 - Cloudy 10 - - - -
22/08:00am 5.2 SSE 8 10 1027.8 - 0.0 - Cloudy 10 - - - -
22/07:30am 5.2 SSE 7 9 1027.8 - 0.0 - Cloudy 10 - - - -
22/07:00am 5.3 SSE 7 8 1027.7 - 0.0 - Cloudy 10 - - - -
22/06:30am 5.3 SSE 7 9 1027.8 - 0.0 - Cloudy 10 - - - -
22/06:00am 5.2 SSE 8 10 1027.9 - 0.0 - Cloudy 10 - - - -
22/05:30am 5.2 SSE 8 10 1027.7 - 0.0 - Cloudy 10 - - - -

Other Formats:

Comma delimited format used in spreadsheet applications
http://www.bom.gov.au/fwo/IDT60701/IDT60701.95960.axf

JavaScript Object Notation format (JSON) in row-major order
http://www.bom.gov.au/fwo/IDT60701/IDT60701.95960.json